Time;durP1;ratioP1;P1;durP2;ratioP2;P2;SDS_P1;SDS_P2;PMS_P1;PMS_P2;Temp;Humidity;BMP_temperature;BMP_pressure;BME280_temperature;BME280_humidity;BME280_pressure;Samples;Min_cycle;Max_cycle;Signal;HPM_P1;HPM_P2
2021/10/02 00:34:00;;;;;;;30.88;12.90;;;;;;;7.48;60.76;101060.22;5089469;28;20147;-75
2021/10/02 00:37:21;;;;;;;34.10;12.13;;;;;;;7.40;60.97;101056.94;5090303;28;20075;-76
2021/10/02 00:44:47;;;;;;;27.50;12.63;;;;;;;7.34;61.33;101053.25;5085502;28;20043;-75
2021/10/02 00:47:18;;;;;;;26.50;12.38;;;;;;;7.41;61.16;101054.00;5073221;28;20060;-76
2021/10/02 00:49:45;;;;;;;25.60;12.10;;;;;;;7.17;61.48;101040.16;5073488;28;20068;-75
2021/10/02 00:52:13;;;;;;;29.77;12.43;;;;;;;7.11;61.88;101043.78;5058695;28;20052;-74
2021/10/02 00:54:42;;;;;;;28.50;12.27;;;;;;;6.99;62.52;101054.56;5090440;28;20048;-77
2021/10/02 00:57:08;;;;;;;25.85;11.48;;;;;;;6.84;63.13;101052.13;5069850;28;20139;-75
2021/10/02 00:59:35;;;;;;;26.63;11.68;;;;;;;6.92;62.86;101072.78;5072474;28;20076;-76
2021/10/02 01:02:13;;;;;;;26.48;11.95;;;;;;;7.04;62.61;101062.06;5088294;28;20048;-77
2021/10/02 01:04:51;;;;;;;25.88;12.35;;;;;;;7.13;62.35;101058.00;5061620;28;20063;-75
2021/10/02 01:07:26;;;;;;;26.02;11.90;;;;;;;6.91;62.61;101047.50;5072788;28;20472;-75
2021/10/02 01:10:13;;;;;;;24.80;11.93;;;;;;;6.87;62.95;101054.44;5090901;28;20086;-76
2021/10/02 01:12:52;;;;;;;21.50;11.15;;;;;;;6.94;63.06;101057.09;5052791;28;20044;-74
2021/10/02 01:15:26;;;;;;;26.95;12.45;;;;;;;6.83;63.51;101049.66;5059144;28;20428;-75
2021/10/02 01:17:59;;;;;;;28.98;12.57;;;;;;;6.81;63.43;101052.56;5090480;28;20064;-74
2021/10/02 01:20:41;;;;;;;27.30;12.15;;;;;;;6.86;63.34;101057.34;5089921;28;20060;-74
2021/10/02 01:23:42;;;;;;;28.60;11.52;;;;;;;7.00;63.03;101052.66;5090789;28;20043;-74
2021/10/02 01:26:31;;;;;;;25.17;10.57;;;;;;;6.94;62.94;101057.94;5087821;28;20072;-75
2021/10/02 01:29:01;;;;;;;22.15;11.35;;;;;;;6.74;63.33;101044.47;5069558;28;20446;-74
2021/10/02 01:31:37;;;;;;;26.45;11.82;;;;;;;6.92;63.12;101056.47;5084221;28;20044;-74
2021/10/02 01:34:16;;;;;;;29.17;11.70;;;;;;;6.86;63.13;101052.75;5090382;28;20052;-76
2021/10/02 01:47:38;;;;;;;24.95;11.07;;;;;;;7.16;62.54;101051.28;5091766;28;20052;-73
2021/10/02 01:50:07;;;;;;;25.92;11.45;;;;;;;7.12;62.55;101048.16;5074642;28;20055;-78
2021/10/02 01:52:37;;;;;;;23.92;11.80;;;;;;;7.12;62.64;101039.19;5057015;28;20052;-76
2021/10/02 01:55:08;;;;;;;30.83;11.65;;;;;;;7.17;62.46;101048.34;5093560;28;20060;-76
2021/10/02 01:57:38;;;;;;;26.02;11.85;;;;;;;7.07;62.56;101040.66;5074073;28;20459;-77
2021/10/02 02:00:09;;;;;;;27.48;11.38;;;;;;;7.15;62.63;101036.84;5092527;28;20544;-78
2021/10/02 02:02:36;;;;;;;26.50;12.27;;;;;;;7.21;62.36;101035.97;5058026;28;20081;-77
2021/10/02 02:05:05;;;;;;;26.23;12.05;;;;;;;7.16;62.30;101041.22;5090629;28;20106;-78
2021/10/02 02:07:33;;;;;;;32.85;11.65;;;;;;;7.15;62.44;101038.75;5073591;28;20105;-77
2021/10/02 02:10:01;;;;;;;29.75;13.05;;;;;;;7.08;62.69;101039.63;5090022;28;20523;-78
2021/10/02 02:12:32;;;;;;;25.52;11.18;;;;;;;7.06;62.82;101047.16;5049416;28;20074;-79
2021/10/02 02:15:01;;;;;;;25.25;11.75;;;;;;;7.11;62.80;101043.78;5058620;28;20048;-77
2021/10/02 02:17:29;;;;;;;22.60;11.55;;;;;;;7.09;62.24;101032.31;5075454;28;20040;-77
2021/10/02 02:19:57;;;;;;;23.25;11.55;;;;;;;7.11;62.52;101041.06;5093274;28;20056;-78
2021/10/02 02:22:23;;;;;;;21.40;11.07;;;;;;;7.06;62.77;101052.59;5070879;28;20131;-76
2021/10/02 02:24:50;;;;;;;26.08;11.90;;;;;;;7.09;62.68;101059.50;5088851;28;20056;-76
2021/10/02 02:27:16;;;;;;;27.55;11.50;;;;;;;7.07;62.84;101046.09;5048803;28;20044;-78
2021/10/02 02:29:43;;;;;;;31.07;11.30;;;;;;;7.21;62.45;101037.84;5082896;28;20163;-77
2021/10/02 02:32:09;;;;;;;25.38;11.32;;;;;;;7.00;63.00;101048.06;5088862;28;20146;-77
2021/10/02 02:34:36;;;;;;;24.20;11.85;;;;;;;7.01;62.95;101040.72;5091749;28;20067;-77
2021/10/02 02:37:02;;;;;;;25.38;11.48;;;;;;;7.11;62.67;101046.50;5050583;28;20142;-77
2021/10/02 02:39:28;;;;;;;24.50;11.45;;;;;;;7.05;62.71;101050.13;5063996;28;20099;-77
2021/10/02 02:41:55;;;;;;;26.60;12.90;;;;;;;7.11;62.27;101051.13;5091779;28;20117;-77
2021/10/02 02:44:21;;;;;;;24.25;12.90;;;;;;;6.94;63.06;101054.34;5072142;28;20063;-77
2021/10/02 02:46:53;;;;;;;31.08;14.30;;;;;;;7.05;62.63;101041.97;5091505;28;20522;-77
2021/10/02 02:49:25;;;;;;;30.88;14.52;;;;;;;6.98;62.59;101030.28;5073539;28;20056;-78
2021/10/02 02:51:58;;;;;;;28.48;13.90;;;;;;;7.05;62.71;101050.13;5087010;28;20107;-78
2021/10/02 02:54:31;;;;;;;29.00;15.07;;;;;;;7.00;62.66;101029.03;5071259;28;20431;-76
2021/10/02 02:57:06;;;;;;;30.20;13.65;;;;;;;7.01;62.79;101062.47;5071455;28;20606;-78
2021/10/02 02:59:36;;;;;;;26.05;12.95;;;;;;;6.97;63.12;101050.38;5066090;28;20135;-76
2021/10/02 03:02:04;;;;;;;26.85;13.10;;;;;;;6.98;62.86;101057.47;5072799;28;20048;-77
2021/10/02 03:04:32;;;;;;;;;;;;;;;6.95;63.12;101050.63;5056314;28;20078;-76
2021/10/02 03:07:01;;;;;;;36.78;19.77;;;;;;;6.90;63.02;101055.84;5089040;28;20332;-76
2021/10/02 03:09:28;;;;;;;34.83;17.10;;;;;;;6.91;63.07;101061.09;5087701;28;20060;-76
2021/10/02 03:11:56;;;;;;;32.33;13.68;;;;;;;6.86;63.05;101047.31;5091300;28;20053;-77
2021/10/02 03:14:23;;;;;;;24.60;12.18;;;;;;;6.89;63.26;101059.63;5052806;28;20070;-75
2021/10/02 03:16:53;;;;;;;24.70;11.68;;;;;;;6.76;63.61;101066.00;5091409;28;20530;-76
2021/10/02 03:19:21;;;;;;;22.45;11.40;;;;;;;6.73;63.75;101058.28;5089942;28;20101;-76
2021/10/02 03:21:49;;;;;;;26.17;12.90;;;;;;;6.74;63.61;101047.19;5085365;28;20040;-76
2021/10/02 03:24:19;;;;;;;28.65;11.73;;;;;;;6.65;63.66;101045.78;5061336;28;20608;-76
2021/10/02 03:26:46;;;;;;;24.95;11.07;;;;;;;6.64;63.85;101055.81;5073432;28;20393;-76
2021/10/02 03:29:13;;;;;;;26.05;11.63;;;;;;;6.67;63.58;101044.50;5090220;28;20060;-76
2021/10/02 03:31:40;;;;;;;26.80;10.82;;;;;;;6.72;63.72;101048.47;5088375;28;21007;-76
2021/10/02 03:34:06;;;;;;;23.42;11.90;;;;;;;6.69;63.70;101047.00;5089607;28;20446;-77
2021/10/02 03:36:34;;;;;;;22.88;12.00;;;;;;;6.59;64.10;101050.19;5072273;28;20052;-77
2021/10/02 03:39:00;;;;;;;;;;;;;;;6.63;63.99;101054.16;5090300;28;20052;-76
2021/10/02 03:41:27;;;;;;;22.52;11.77;;;;;;;6.74;63.61;101047.19;5089146;28;19947;-76
2021/10/02 03:43:53;;;;;;;26.63;12.88;;;;;;;6.67;63.72;101049.13;5072798;28;20105;-77
2021/10/02 03:46:19;;;;;;;28.13;12.23;;;;;;;6.66;63.90;101056.41;5070735;28;20072;-76
2021/10/02 03:48:45;;;;;;;25.33;11.93;;;;;;;6.63;63.96;101056.88;5070958;28;20052;-75
2021/10/02 03:51:11;;;;;;;26.60;12.02;;;;;;;6.63;64.09;101051.44;5088921;28;20617;-77
2021/10/02 03:53:37;;;;;;;27.10;12.25;;;;;;;6.80;63.49;101050.91;5070882;28;20083;-77
2021/10/02 03:56:04;;;;;;;25.75;12.52;;;;;;;6.76;63.33;101053.22;5077774;28;20075;-77
2021/10/02 03:58:31;;;;;;;27.17;12.70;;;;;;;6.70;63.66;101053.25;5089837;28;20055;-77
2021/10/02 04:00:58;;;;;;;26.20;11.77;;;;;;;6.65;63.76;101052.03;5071525;28;20055;-75
2021/10/02 04:03:24;;;;;;;24.85;11.57;;;;;;;6.56;63.91;101053.38;5055500;28;20052;-75
2021/10/02 04:05:50;;;;;;;23.13;11.68;;;;;;;6.55;64.07;101067.97;5088865;28;20176;-77
2021/10/02 04:08:16;;;;;;;28.27;12.27;;;;;;;6.65;64.32;101057.47;5069264;28;20057;-77
2021/10/02 04:10:42;;;;;;;29.58;13.02;;;;;;;6.79;63.57;101060.13;5091018;28;20052;-80
2021/10/02 04:13:08;;;;;;;24.83;11.18;;;;;;;6.86;63.43;101057.34;5089536;28;20074;-78
2021/10/02 04:15:35;;;;;;;26.60;12.45;;;;;;;6.79;63.38;101060.13;5089162;28;20044;-78
2021/10/02 04:18:02;;;;;;;24.42;12.25;;;;;;;6.75;63.64;101062.44;5081279;28;20060;-78
2021/10/02 04:20:28;;;;;;;25.60;11.73;;;;;;;6.78;63.43;101056.56;5069904;28;20071;-79
2021/10/02 04:22:54;;;;;;;26.52;12.30;;;;;;;6.79;63.48;101060.13;5055913;28;20048;-79
2021/10/02 04:25:20;;;;;;;23.92;12.13;;;;;;;6.77;63.60;101057.59;5071720;28;20046;-78
2021/10/02 04:27:46;;;;;;;33.65;12.88;;;;;;;6.70;63.93;101061.41;5089753;28;20048;-78
2021/10/02 04:30:12;;;;;;;26.25;12.45;;;;;;;6.68;64.03;101064.38;5089293;28;20059;-79
2021/10/02 04:32:40;;;;;;;26.38;12.73;;;;;;;6.74;63.98;101054.50;5072834;28;20082;-79
2021/10/02 04:35:06;;;;;;;26.27;12.48;;;;;;;6.70;64.04;101048.66;5072895;28;20424;-79
2021/10/02 04:37:33;;;;;;;25.97;12.37;;;;;;;6.74;64.09;101052.63;5074622;28;20142;-79
2021/10/02 04:39:59;;;;;;;29.75;11.68;;;;;;;6.65;64.29;101057.47;5074111;28;20055;-79
2021/10/02 04:42:25;;;;;;;31.00;12.18;;;;;;;6.69;64.43;101055.16;5100275;28;20052;-79
2021/10/02 04:44:59;;;;;;;23.83;11.85;;;;;;;6.63;64.58;101058.72;5090202;28;20054;-77
2021/10/02 04:47:26;;;;;;;29.73;12.32;;;;;;;6.70;64.22;101056.81;5096258;28;20052;-80
2021/10/02 04:49:53;;;;;;;27.25;12.93;;;;;;;6.62;64.66;101057.91;5072960;28;20059;-77
2021/10/02 04:52:19;;;;;;;31.35;13.15;;;;;;;6.59;64.70;101041.19;5091350;28;20067;-76
2021/10/02 04:54:46;;;;;;;27.25;12.02;;;;;;;6.68;64.56;101050.78;5094651;28;20048;-78
2021/10/02 04:57:12;;;;;;;26.52;11.80;;;;;;;6.88;64.12;101063.41;5091581;28;20074;-76
2021/10/02 04:59:40;;;;;;;25.27;12.70;;;;;;;6.92;64.00;101067.34;5093517;28;20508;-77
2021/10/02 05:02:06;;;;;;;26.98;12.45;;;;;;;7.02;63.77;101066.84;5090489;28;20059;-77
2021/10/02 05:04:31;;;;;;;27.25;13.25;;;;;;;7.09;63.53;101064.94;5092399;28;20040;-77
2021/10/02 05:06:59;;;;;;;26.08;12.32;;;;;;;6.99;63.42;101060.00;5089886;28;20559;-78
2021/10/02 05:09:25;;;;;;;26.50;12.57;;;;;;;7.17;63.30;101061.13;5094631;28;20059;-80
2021/10/02 05:11:56;;;;;;;28.70;11.93;;;;;;;7.23;62.75;101069.22;5075153;28;20055;-79
2021/10/02 05:14:22;;;;;;;25.52;12.85;;;;;;;7.16;62.93;101071.16;5058733;28;20415;-84
2021/10/02 05:16:48;;;;;;;26.08;13.20;;;;;;;7.13;62.90;101077.03;5075635;28;20075;-78
2021/10/02 05:19:14;;;;;;;26.58;12.65;;;;;;;7.13;63.00;101068.88;5092931;28;20064;-79
2021/10/02 05:21:39;;;;;;;27.80;13.40;;;;;;;7.17;62.86;101070.09;5094078;28;20074;-79
2021/10/02 05:24:07;;;;;;;30.88;13.60;;;;;;;7.15;62.81;101080.38;5101091;28;20052;-77
2021/10/02 05:26:33;;;;;;;23.73;13.07;;;;;;;7.26;62.53;101081.56;5095592;28;20044;-76
2021/10/02 05:28:59;;;;;;;31.23;13.45;;;;;;;7.41;62.24;101083.09;5093274;28;20072;-78
2021/10/02 05:31:25;;;;;;;26.38;13.75;;;;;;;7.42;62.07;101085.59;5111167;28;20071;-77
2021/10/02 05:33:51;;;;;;;39.00;13.98;;;;;;;7.40;62.13;101078.72;5112293;28;20120;-78
2021/10/02 05:36:17;;;;;;;30.02;14.38;;;;;;;7.40;62.26;101081.44;5113150;28;20220;-77
2021/10/02 05:38:43;;;;;;;24.33;12.93;;;;;;;7.48;61.94;101071.09;5077358;28;20143;-76
2021/10/02 05:41:11;;;;;;;35.45;14.90;;;;;;;7.43;61.89;101067.41;5088517;28;20055;-76
2021/10/02 05:43:37;;;;;;;28.08;13.68;;;;;;;7.61;61.26;101085.66;5094948;28;20056;-76
2021/10/02 05:46:03;;;;;;;25.20;14.45;;;;;;;7.30;61.90;101069.19;5072971;28;20105;-74
2021/10/02 05:48:29;;;;;;;23.15;13.23;;;;;;;7.26;62.11;101075.28;5078179;28;20054;-76
2021/10/02 05:50:55;;;;;;;33.10;13.77;;;;;;;7.31;62.31;101083.59;5095178;28;20143;-77
2021/10/02 05:53:21;;;;;;;25.52;13.73;;;;;;;7.40;61.89;101076.84;5076659;28;20101;-77
2021/10/02 05:55:47;;;;;;;25.85;13.70;;;;;;;7.55;61.72;101081.94;5094236;28;20515;-76
2021/10/02 05:58:15;;;;;;;32.20;13.32;;;;;;;7.59;61.40;101082.31;5058610;28;20342;-76
2021/10/02 06:00:41;;;;;;;;;;;;;;;7.60;61.39;101075.81;5076078;28;20070;-78
2021/10/02 06:03:07;;;;;;;28.50;13.48;;;;;;;7.64;61.23;101080.59;5084584;28;19924;-78
2021/10/02 06:05:33;;;;;;;27.95;14.30;;;;;;;7.65;61.17;101076.00;5074630;28;20415;-77
2021/10/02 06:08:03;;;;;;;31.67;15.20;;;;;;;7.66;61.55;101086.66;5092340;28;20052;-77
2021/10/02 06:10:34;;;;;;;30.77;15.85;;;;;;;7.51;61.81;101067.94;5092521;28;20053;-77
2021/10/02 06:13:01;;;;;;;29.63;15.27;;;;;;;7.69;61.50;101073.63;5075533;28;20417;-75
2021/10/02 06:15:29;;;;;;;30.38;15.15;;;;;;;7.78;61.73;101078.56;5074439;28;20404;-76
2021/10/02 06:17:57;;;;;;;29.70;14.93;;;;;;;7.91;61.20;101074.91;5091582;28;20047;-77
2021/10/02 06:20:24;;;;;;;36.30;15.80;;;;;;;7.93;61.15;101080.09;5074300;28;20048;-76
2021/10/02 06:22:54;;;;;;;31.48;15.15;;;;;;;7.96;61.13;101074.22;5084247;28;20063;-77
2021/10/02 06:25:20;;;;;;;39.22;16.08;;;;;;;7.93;61.17;101071.94;5069916;28;20047;-76
2021/10/02 06:27:46;;;;;;;34.58;16.58;;;;;;;8.01;61.28;101079.81;5054580;28;20094;-79
2021/10/02 06:30:16;;;;;;;38.65;16.17;;;;;;;8.08;61.21;101080.56;5073017;28;20424;-79
2021/10/02 06:32:43;;;;;;;40.72;16.55;;;;;;;8.16;61.13;101075.88;5089718;28;20067;-75
2021/10/02 06:35:09;;;;;;;36.00;15.25;;;;;;;8.26;60.84;101069.91;5056199;28;20063;-74
2021/10/02 06:37:35;;;;;;;38.72;16.67;;;;;;;8.28;60.77;101074.06;5070445;28;20048;-74
2021/10/02 06:40:04;;;;;;;30.05;15.30;;;;;;;8.45;60.14;101087.06;5072309;28;20044;-73
2021/10/02 06:42:29;;;;;;;33.20;14.60;;;;;;;8.49;59.62;101077.38;5071278;28;20044;-74
2021/10/02 06:44:56;;;;;;;38.63;15.38;;;;;;;8.44;59.70;101075.31;5071522;28;20055;-74
2021/10/02 06:47:23;;;;;;;43.53;15.85;;;;;;;8.55;59.37;101075.66;5076418;28;20048;-71
2021/10/02 06:49:57;;;;;;;37.72;16.13;;;;;;;8.59;59.37;101072.25;5089654;28;20106;-72
2021/10/02 06:52:23;;;;;;;46.00;18.33;;;;;;;8.71;59.27;101080.47;5089522;28;20063;-71
2021/10/02 06:54:49;;;;;;;46.80;16.63;;;;;;;8.67;59.12;101075.69;5053048;28;20137;-73
2021/10/02 06:57:15;;;;;;;35.00;15.27;;;;;;;8.77;58.59;101086.88;5070537;28;20051;-72
2021/10/02 06:59:47;;;;;;;33.08;14.07;;;;;;;8.74;58.27;101085.44;5073024;28;20051;-76
2021/10/02 07:02:14;;;;;;;33.13;14.70;;;;;;;8.65;58.31;101079.47;5072819;28;20163;-71
2021/10/02 07:04:40;;;;;;;40.47;14.52;;;;;;;8.53;58.50;101075.06;5092475;28;20070;-73
2021/10/02 07:07:07;;;;;;;40.40;14.27;;;;;;;8.72;58.23;101084.84;5085268;28;20043;-71
2021/10/02 07:09:33;;;;;;;32.38;14.02;;;;;;;8.85;57.88;101089.28;5098663;28;20095;-73
2021/10/02 07:11:59;;;;;;;31.70;15.25;;;;;;;8.79;57.91;101074.66;5076214;28;20157;-72
2021/10/02 07:14:25;;;;;;;40.55;14.57;;;;;;;8.86;57.87;101068.31;5069829;28;20055;-72
2021/10/02 07:16:52;;;;;;;38.83;16.42;;;;;;;9.05;57.39;101088.16;5085993;28;20055;-73
2021/10/02 07:19:18;;;;;;;41.92;16.38;;;;;;;9.10;57.40;101082.00;5083612;28;20056;-72
2021/10/02 07:21:44;;;;;;;40.15;15.10;;;;;;;9.03;57.15;101082.09;5092146;28;20055;-72
2021/10/02 07:24:16;;;;;;;33.03;14.60;;;;;;;9.11;57.13;101089.97;5086184;28;20056;-71
2021/10/02 07:26:42;;;;;;;30.38;14.15;;;;;;;9.04;57.36;101070.09;5056207;28;20047;-71
2021/10/02 07:29:10;;;;;;;37.97;14.35;;;;;;;9.16;57.35;101081.88;5071059;28;20055;-73
2021/10/02 07:31:36;;;;;;;40.33;15.10;;;;;;;9.29;57.05;101088.22;5047456;28;20052;-74
2021/10/02 07:34:02;;;;;;;47.17;15.82;;;;;;;9.37;56.84;101082.41;5088924;28;20113;-75
2021/10/02 07:36:31;;;;;;;39.70;15.80;;;;;;;9.39;56.80;101084.91;5089165;28;20591;-74
2021/10/02 07:38:57;;;;;;;52.88;16.13;;;;;;;9.42;56.72;101087.16;5085175;28;20467;-74
2021/10/02 07:41:25;;;;;;;40.75;16.02;;;;;;;9.45;56.63;101090.25;5089123;28;20052;-73
2021/10/02 07:44:02;;;;;;;39.35;17.02;;;;;;;9.53;56.71;101080.06;5091238;28;20167;-74
2021/10/02 07:46:30;;;;;;;39.65;16.23;;;;;;;9.64;56.24;101082.78;5085185;28;20056;-73
2021/10/02 07:48:56;;;;;;;;;;;;;;;9.69;56.13;101086.69;5083367;28;20139;-74
2021/10/02 07:51:24;;;;;;;27.33;13.93;;;;;;;9.71;55.70;101090.03;5087046;28;19932;-74
2021/10/02 07:53:52;;;;;;;30.83;13.30;;;;;;;9.58;55.94;101081.00;5087869;28;20081;-75
2021/10/02 07:56:19;;;;;;;25.77;12.77;;;;;;;9.63;55.84;101081.13;5086197;28;20056;-71
2021/10/02 07:58:48;;;;;;;27.63;12.18;;;;;;;9.74;55.67;101081.34;5067761;28;20189;-73
2021/10/02 08:01:15;;;;;;;25.88;11.93;;;;;;;9.78;55.37;101082.56;5088939;28;20097;-73
2021/10/02 08:03:42;;;;;;;28.33;11.45;;;;;;;9.84;55.03;101083.50;5078922;28;20052;-71
2021/10/02 08:06:09;;;;;;;27.15;11.65;;;;;;;9.85;55.01;101087.91;5071321;28;20059;-71
2021/10/02 08:08:35;;;;;;;26.35;12.13;;;;;;;9.90;55.09;101080.63;5077615;28;20151;-72
2021/10/02 08:11:05;;;;;;;28.00;12.45;;;;;;;10.01;54.64;101083.59;5070147;28;20070;-72
2021/10/02 08:13:31;;;;;;;26.00;12.60;;;;;;;10.03;54.62;101082.28;5063848;28;20057;-72
2021/10/02 08:16:00;;;;;;;24.25;12.88;;;;;;;10.09;54.56;101083.25;5086846;28;20482;-73
2021/10/02 08:18:29;;;;;;;30.40;13.50;;;;;;;10.11;54.54;101089.28;5068635;28;20052;-73
2021/10/02 08:20:55;;;;;;;32.38;13.93;;;;;;;10.17;54.73;101079.31;5088175;28;20056;-73
2021/10/02 08:23:23;;;;;;;35.78;14.48;;;;;;;10.20;54.62;101076.91;5087570;28;20169;-74
2021/10/02 08:25:51;;;;;;;29.95;12.93;;;;;;;10.25;54.48;101072.63;5089262;28;20055;-74
2021/10/02 08:28:18;;;;;;;24.80;13.23;;;;;;;10.26;54.54;101080.56;5089083;28;20078;-72
2021/10/02 08:30:46;;;;;;;27.70;12.70;;;;;;;10.36;54.33;101080.78;5072999;28;20870;-73
2021/10/02 08:33:14;;;;;;;25.92;12.43;;;;;;;10.41;53.97;101084.72;5089496;28;20052;-72
2021/10/02 08:35:40;;;;;;;24.88;12.05;;;;;;;10.45;53.75;101085.91;5089398;28;20048;-72
2021/10/02 08:38:07;;;;;;;28.17;11.20;;;;;;;10.43;53.69;101072.47;5070489;28;20075;-71
2021/10/02 08:40:33;;;;;;;23.17;10.43;;;;;;;10.49;53.41;101081.63;5054347;28;20302;-72
2021/10/02 08:43:01;;;;;;;22.17;10.30;;;;;;;10.61;52.91;101082.41;5089779;28;20553;-73
2021/10/02 08:45:29;;;;;;;21.35;10.63;;;;;;;10.60;52.75;101064.31;5088786;28;20044;-73
2021/10/02 08:47:58;;;;;;;21.15;10.65;;;;;;;10.63;52.69;101069.31;5056615;28;20059;-74
2021/10/02 08:50:27;;;;;;;21.50;10.63;;;;;;;10.67;52.61;101077.84;5089664;28;20059;-71
2021/10/02 08:52:54;;;;;;;21.95;10.07;;;;;;;10.69;52.96;101069.41;5078128;28;20456;-71
2021/10/02 08:55:21;;;;;;;22.35;10.90;;;;;;;10.73;52.57;101070.56;5063811;28;20055;-71
2021/10/02 08:57:49;;;;;;;20.30;10.20;;;;;;;10.71;52.66;101056.31;5090629;28;20051;-74
2021/10/02 09:00:21;;;;;;;18.65;10.13;;;;;;;10.82;52.30;101074.59;5087773;28;20044;-75
2021/10/02 09:02:48;;;;;;;26.30;11.23;;;;;;;10.82;52.25;101071.00;5081249;28;20423;-73
2021/10/02 09:05:16;;;;;;;19.38;10.27;;;;;;;10.70;52.36;101060.13;5055045;28;20058;-74
2021/10/02 09:07:44;;;;;;;23.83;10.80;;;;;;;10.73;52.37;101071.44;5080041;28;20056;-75
2021/10/02 09:10:14;;;;;;;23.38;10.43;;;;;;;10.77;52.41;101066.28;5089489;28;20060;-75
2021/10/02 09:12:58;;;;;;;27.13;14.20;;;;;;;10.80;52.65;101068.53;5085230;28;20057;-74
2021/10/02 09:15:30;;;;;;;;;;;;;;;10.80;52.75;101075.91;5054596;28;20421;-74
2021/10/02 09:17:56;;;;;;;26.42;10.88;;;;;;;10.82;52.56;101066.38;5086168;28;19924;-75
2021/10/02 09:20:25;;;;;;;22.50;10.20;;;;;;;10.84;52.02;101075.16;5081284;28;20056;-76
2021/10/02 09:22:58;;;;;;;22.65;9.90;;;;;;;10.80;51.83;101067.69;5081265;28;20059;-77
2021/10/02 09:25:26;;;;;;;20.83;9.10;;;;;;;10.75;51.86;101079.38;5087033;28;20071;-74
2021/10/02 09:28:07;;;;;;;18.67;8.88;;;;;;;10.74;51.57;101075.81;5085536;28;20511;-72
2021/10/02 09:30:34;;;;;;;21.40;9.32;;;;;;;10.71;51.77;101078.19;5085026;28;20412;-70
2021/10/02 09:33:05;;;;;;;17.48;9.38;;;;;;;10.69;51.81;101077.63;5090169;28;20531;-71
2021/10/02 09:35:36;;;;;;;21.73;9.43;;;;;;;10.61;51.88;101071.47;5086948;28;20067;-78
2021/10/02 09:38:15;;;;;;;17.95;9.40;;;;;;;10.61;51.61;101054.22;5088044;28;20044;-76
2021/10/02 09:40:51;;;;;;;21.98;9.82;;;;;;;10.56;51.73;101056.88;5092538;28;20078;-77
2021/10/02 09:43:18;;;;;;;21.58;9.98;;;;;;;10.61;51.93;101065.16;5091620;28;20084;-76
2021/10/02 09:46:10;;;;;;;26.30;10.63;;;;;;;10.71;52.01;101072.72;5071902;28;20048;-78
2021/10/02 09:48:55;;;;;;;21.05;9.88;;;;;;;10.75;51.82;101068.44;4982251;28;20122;-75
2021/10/02 09:52:23;;;;;;;23.88;9.93;;;;;;;10.63;51.70;101061.13;5010718;28;20153;-77
2021/10/02 09:55:42;;;;;;;23.30;9.95;;;;;;;10.64;51.82;101068.25;5025090;28;20054;-77
2021/10/02 09:58:53;;;;;;;21.80;10.13;;;;;;;10.31;51.87;101006.03;5002819;28;20054;-77
2021/10/02 10:05:43;;;;;;;21.23;10.35;;;;;;;10.64;52.08;101062.78;4884035;29;20159;-78
2021/10/02 10:09:34;;;;;;;26.15;10.60;;;;;;;10.62;51.97;101058.63;4899046;29;20055;-76
2021/10/02 10:12:23;;;;;;;22.60;10.82;;;;;;;10.34;51.81;101009.13;4913399;29;20055;-74
2021/10/02 10:19:20;;;;;;;26.75;9.70;;;;;;;10.24;51.76;100992.53;5010780;28;20115;-76
2021/10/02 10:22:06;;;;;;;22.70;10.65;;;;;;;10.20;51.76;100988.63;5002803;28;20103;-76
2021/10/02 10:28:17;;;;;;;22.30;11.38;;;;;;;10.71;51.49;101057.16;5088846;28;20048;-78
2021/10/02 10:37:34;;;;;;;24.27;10.43;;;;;;;10.53;51.99;101021.78;5002707;28;20054;-77
2021/10/02 10:40:27;;;;;;;25.80;10.55;;;;;;;10.63;51.94;101041.13;4998647;28;20506;-78
2021/10/02 10:42:56;;;;;;;24.45;11.15;;;;;;;10.40;51.88;100998.28;4998859;28;20051;-79
2021/10/02 10:46:56;;;;;;;28.88;12.38;;;;;;;10.23;51.59;100982.66;5005047;28;20064;-76
2021/10/02 10:50:23;;;;;;;22.77;11.05;;;;;;;10.50;51.42;101026.69;4939388;29;20079;-78
2021/10/02 10:52:59;;;;;;;18.48;9.95;;;;;;;10.40;51.60;101015.53;4963357;28;20148;-76
2021/10/02 10:55:25;;;;;;;27.27;11.60;;;;;;;10.58;51.46;101041.88;4982698;28;20042;-72
2021/10/02 10:57:52;;;;;;;21.80;10.57;;;;;;;10.54;51.48;101034.41;5002497;28;20486;-70
2021/10/02 11:00:21;;;;;;;28.70;11.27;;;;;;;10.56;51.62;101044.00;4991000;28;20578;-71
2021/10/02 11:02:51;;;;;;;27.75;13.52;;;;;;;10.65;51.51;101041.72;4974758;28;20050;-70
2021/10/02 11:05:51;;;;;;;29.45;13.65;;;;;;;10.59;51.52;101020.81;4990735;28;20065;-70
2021/10/02 11:08:21;;;;;;;27.23;12.52;;;;;;;10.78;51.66;101046.06;4878018;29;20053;-71
2021/10/02 11:10:59;;;;;;;40.92;12.48;;;;;;;10.82;51.62;101044.50;4969507;28;20341;-69
2021/10/02 11:13:53;;;;;;;29.63;12.10;;;;;;;10.83;51.56;101045.31;4982641;28;20076;-71
2021/10/02 11:16:33;;;;;;;28.33;12.15;;;;;;;10.84;51.58;101038.75;4979820;28;20054;-71
2021/10/02 11:18:59;;;;;;;21.20;11.25;;;;;;;10.83;51.66;101037.94;4994316;28;20058;-72
2021/10/02 11:21:30;;;;;;;26.58;11.38;;;;;;;10.84;51.45;101033.28;4991681;28;20061;-70
2021/10/02 11:24:09;;;;;;;32.55;15.60;;;;;;;10.85;51.77;101030.31;4982438;28;20065;-72
2021/10/02 11:26:42;;;;;;;29.10;14.38;;;;;;;10.89;51.75;101028.75;4999998;28;20503;-71
2021/10/02 11:29:25;;;;;;;30.33;14.00;;;;;;;10.84;51.53;101023.19;4986081;28;20541;-71
2021/10/02 11:32:30;;;;;;;24.17;12.50;;;;;;;10.84;51.55;101022.34;4989398;28;20054;-69
2021/10/02 11:35:15;;;;;;;27.13;12.35;;;;;;;10.84;51.23;101025.94;4996302;28;20111;-73
2021/10/02 11:37:45;;;;;;;30.10;13.48;;;;;;;10.92;51.37;101036.44;5028675;28;20063;-72
2021/10/02 11:40:46;;;;;;;26.08;13.70;;;;;;;10.95;51.29;101037.06;5028772;28;20069;-71
2021/10/02 11:43:29;;;;;;;23.58;11.05;;;;;;;10.97;51.18;101029.44;5006474;28;20092;-71
2021/10/02 11:45:58;;;;;;;27.02;10.95;;;;;;;10.91;51.50;101037.53;5005870;28;20073;-73
2021/10/02 11:48:33;;;;;;;21.40;11.90;;;;;;;10.96;51.34;101031.31;5028295;28;20424;-70
2021/10/02 11:51:21;;;;;;;24.23;11.00;;;;;;;10.96;51.06;101030.50;5029282;28;20411;-70
2021/10/02 11:53:53;;;;;;;21.42;10.88;;;;;;;11.01;51.16;101025.97;5030052;28;20123;-71
2021/10/02 11:56:21;;;;;;;25.10;11.43;;;;;;;11.03;51.09;101020.22;5028524;28;20053;-71
2021/10/02 11:58:48;;;;;;;23.25;11.30;;;;;;;11.16;50.71;101033.56;5039556;28;20080;-71
2021/10/02 12:01:15;;;;;;;;;;;;;;;11.14;50.64;101018.47;5039993;28;20396;-70
2021/10/02 12:03:41;;;;;;;25.00;10.70;;;;;;;11.17;50.91;101013.34;5034290;28;19959;-70
2021/10/02 12:06:09;;;;;;;20.67;11.15;;;;;;;11.14;51.02;101013.84;5021026;28;20340;-69
2021/10/02 12:08:37;;;;;;;22.58;11.32;;;;;;;11.19;51.09;101013.09;5020192;28;20045;-68
2021/10/02 12:11:18;;;;;;;24.75;11.65;;;;;;;11.23;50.65;101007.94;5009374;28;20057;-68
2021/10/02 12:13:46;;;;;;;27.98;12.25;;;;;;;11.09;50.66;101018.41;5007380;28;20499;-69
2021/10/02 12:16:14;;;;;;;30.52;12.35;;;;;;;11.03;50.95;101018.31;5024264;28;20080;-69
2021/10/02 12:18:52;;;;;;;24.38;11.55;;;;;;;11.06;50.88;101014.25;5019185;28;20050;-67
2021/10/02 12:21:28;;;;;;;23.02;12.13;;;;;;;11.12;50.64;101002.31;5018741;28;20064;-70
2021/10/02 12:23:58;;;;;;;26.33;11.75;;;;;;;11.06;50.61;101006.88;5021711;28;20046;-70
2021/10/02 12:26:26;;;;;;;24.40;12.32;;;;;;;11.08;50.55;101001.13;5013491;28;20054;-72
2021/10/02 12:29:03;;;;;;;24.38;11.82;;;;;;;10.97;50.89;101008.34;5017712;28;20061;-71
2021/10/02 12:31:41;;;;;;;29.27;11.77;;;;;;;11.00;50.67;100998.81;5020318;28;20121;-72
2021/10/02 12:34:16;;;;;;;24.30;11.68;;;;;;;11.11;50.35;101000.66;5019970;28;20481;-72
2021/10/02 12:36:44;;;;;;;26.80;11.95;;;;;;;11.07;50.49;101002.22;5009209;28;20056;-71
2021/10/02 12:39:10;;;;;;;28.67;12.00;;;;;;;11.00;50.63;100996.09;5020311;28;20065;-70
2021/10/02 12:41:40;;;;;;;23.42;11.73;;;;;;;10.95;50.55;101005.03;5019625;28;20059;-72
2021/10/02 12:44:15;;;;;;;19.20;10.88;;;;;;;10.90;50.63;100994.81;5019352;28;20168;-74